sensor_id;sensor_type;location;lat;lon;timestamp;P1;durP1;ratioP1;P2;durP2;ratioP2
34930;SDS011;21134;49.646;8.560;2022-08-14T00:01:55;1.35;;;0.90;;
34930;SDS011;21134;49.646;8.560;2022-08-14T00:04:22;1.00;;;0.82;;
34930;SDS011;21134;49.646;8.560;2022-08-14T00:06:49;1.55;;;1.25;;
34930;SDS011;21134;49.646;8.560;2022-08-14T00:09:15;1.95;;;1.30;;
34930;SDS011;21134;49.646;8.560;2022-08-14T00:11:42;0.85;;;0.80;;
34930;SDS011;21134;49.646;8.560;2022-08-14T00:14:10;1.23;;;0.93;;
34930;SDS011;21134;49.646;8.560;2022-08-14T00:16:36;1.15;;;0.82;;
34930;SDS011;21134;49.646;8.560;2022-08-14T00:19:03;3.70;;;1.08;;
34930;SDS011;21134;49.646;8.560;2022-08-14T00:21:30;0.80;;;0.68;;
34930;SDS011;21134;49.646;8.560;2022-08-14T00:23:56;2.25;;;0.75;;
34930;SDS011;21134;49.646;8.560;2022-08-14T00:26:23;0.90;;;0.90;;
34930;SDS011;21134;49.646;8.560;2022-08-14T00:28:50;2.42;;;1.60;;
34930;SDS011;21134;49.646;8.560;2022-08-14T00:31:19;0.90;;;0.85;;
34930;SDS011;21134;49.646;8.560;2022-08-14T00:33:46;0.65;;;0.65;;
34930;SDS011;21134;49.646;8.560;2022-08-14T00:36:12;0.82;;;0.82;;
34930;SDS011;21134;49.646;8.560;2022-08-14T00:38:39;1.38;;;0.95;;
34930;SDS011;21134;49.646;8.560;2022-08-14T00:41:06;0.70;;;0.70;;
34930;SDS011;21134;49.646;8.560;2022-08-14T00:43:34;2.03;;;1.13;;
34930;SDS011;21134;49.646;8.560;2022-08-14T00:46:02;4.00;;;1.17;;
34930;SDS011;21134;49.646;8.560;2022-08-14T00:48:32;1.20;;;0.93;;
34930;SDS011;21134;49.646;8.560;2022-08-14T00:50:59;3.88;;;1.13;;
34930;SDS011;21134;49.646;8.560;2022-08-14T00:53:25;1.40;;;0.90;;
34930;SDS011;21134;49.646;8.560;2022-08-14T00:55:53;0.63;;;0.63;;
34930;SDS011;21134;49.646;8.560;2022-08-14T00:58:21;4.18;;;1.40;;
34930;SDS011;21134;49.646;8.560;2022-08-14T01:00:58;0.75;;;0.63;;
34930;SDS011;21134;49.646;8.560;2022-08-14T01:03:26;1.70;;;1.08;;
34930;SDS011;21134;49.646;8.560;2022-08-14T01:05:55;2.63;;;1.08;;
34930;SDS011;21134;49.646;8.560;2022-08-14T01:08:23;0.90;;;0.77;;
34930;SDS011;21134;49.646;8.560;2022-08-14T01:10:52;2.20;;;0.98;;
34930;SDS011;21134;49.646;8.560;2022-08-14T01:13:20;1.77;;;1.10;;
34930;SDS011;21134;49.646;8.560;2022-08-14T01:15:49;1.48;;;1.25;;
34930;SDS011;21134;49.646;8.560;2022-08-14T01:18:18;1.75;;;1.02;;
34930;SDS011;21134;49.646;8.560;2022-08-14T01:21:04;0.60;;;0.60;;
34930;SDS011;21134;49.646;8.560;2022-08-14T01:23:38;1.48;;;1.00;;
34930;SDS011;21134;49.646;8.560;2022-08-14T01:26:06;1.08;;;0.98;;
34930;SDS011;21134;49.646;8.560;2022-08-14T01:28:34;1.25;;;1.17;;
34930;SDS011;21134;49.646;8.560;2022-08-14T01:31:06;1.27;;;0.88;;
34930;SDS011;21134;49.646;8.560;2022-08-14T01:33:35;2.08;;;0.90;;
34930;SDS011;21134;49.646;8.560;2022-08-14T01:36:05;0.90;;;0.85;;
34930;SDS011;21134;49.646;8.560;2022-08-14T01:38:33;1.45;;;0.70;;
34930;SDS011;21134;49.646;8.560;2022-08-14T01:41:02;0.88;;;0.63;;
34930;SDS011;21134;49.646;8.560;2022-08-14T01:43:31;2.80;;;1.00;;
34930;SDS011;21134;49.646;8.560;2022-08-14T01:46:02;0.68;;;0.68;;
34930;SDS011;21134;49.646;8.560;2022-08-14T01:48:30;1.27;;;0.82;;
34930;SDS011;21134;49.646;8.560;2022-08-14T01:50:57;1.95;;;0.95;;
34930;SDS011;21134;49.646;8.560;2022-08-14T01:53:26;1.52;;;1.08;;
34930;SDS011;21134;49.646;8.560;2022-08-14T01:55:53;1.10;;;0.68;;
34930;SDS011;21134;49.646;8.560;2022-08-14T01:58:23;1.45;;;1.35;;
34930;SDS011;21134;49.646;8.560;2022-08-14T02:00:53;1.45;;;0.88;;
34930;SDS011;21134;49.646;8.560;2022-08-14T02:03:22;1.40;;;1.30;;
34930;SDS011;21134;49.646;8.560;2022-08-14T02:05:50;0.45;;;0.43;;
34930;SDS011;21134;49.646;8.560;2022-08-14T02:08:22;0.60;;;0.57;;
34930;SDS011;21134;49.646;8.560;2022-08-14T02:10:54;1.67;;;1.58;;
34930;SDS011;21134;49.646;8.560;2022-08-14T02:13:37;2.25;;;1.15;;
34930;SDS011;21134;49.646;8.560;2022-08-14T02:16:04;4.82;;;1.15;;
34930;SDS011;21134;49.646;8.560;2022-08-14T02:18:32;0.52;;;0.45;;
34930;SDS011;21134;49.646;8.560;2022-08-14T02:21:00;0.95;;;0.95;;
34930;SDS011;21134;49.646;8.560;2022-08-14T02:23:27;0.68;;;0.60;;
34930;SDS011;21134;49.646;8.560;2022-08-14T02:25:54;2.97;;;0.90;;
34930;SDS011;21134;49.646;8.560;2022-08-14T02:28:20;0.65;;;0.65;;
34930;SDS011;21134;49.646;8.560;2022-08-14T02:30:49;1.88;;;1.77;;
34930;SDS011;21134;49.646;8.560;2022-08-14T02:33:15;1.08;;;0.80;;
34930;SDS011;21134;49.646;8.560;2022-08-14T02:35:42;1.65;;;1.45;;
34930;SDS011;21134;49.646;8.560;2022-08-14T02:38:09;0.40;;;0.40;;
34930;SDS011;21134;49.646;8.560;2022-08-14T02:40:36;2.05;;;0.82;;
34930;SDS011;21134;49.646;8.560;2022-08-14T02:43:03;2.33;;;0.65;;
34930;SDS011;21134;49.646;8.560;2022-08-14T02:45:30;1.80;;;0.93;;
34930;SDS011;21134;49.646;8.560;2022-08-14T02:47:59;0.80;;;0.77;;
34930;SDS011;21134;49.646;8.560;2022-08-14T02:50:31;2.60;;;2.08;;
34930;SDS011;21134;49.646;8.560;2022-08-14T02:52:58;1.33;;;1.23;;
34930;SDS011;21134;49.646;8.560;2022-08-14T02:55:24;1.92;;;1.33;;
34930;SDS011;21134;49.646;8.560;2022-08-14T02:57:51;1.45;;;0.90;;
34930;SDS011;21134;49.646;8.560;2022-08-14T03:00:18;2.97;;;1.58;;
34930;SDS011;21134;49.646;8.560;2022-08-14T03:02:46;0.80;;;0.80;;
34930;SDS011;21134;49.646;8.560;2022-08-14T03:05:16;0.88;;;0.63;;
34930;SDS011;21134;49.646;8.560;2022-08-14T03:07:44;2.92;;;0.90;;
34930;SDS011;21134;49.646;8.560;2022-08-14T03:10:10;1.95;;;0.80;;
34930;SDS011;21134;49.646;8.560;2022-08-14T03:12:37;1.15;;;1.05;;
34930;SDS011;21134;49.646;8.560;2022-08-14T03:15:04;1.75;;;1.65;;
34930;SDS011;21134;49.646;8.560;2022-08-14T03:17:34;1.67;;;1.45;;
34930;SDS011;21134;49.646;8.560;2022-08-14T03:20:01;6.63;;;2.05;;
34930;SDS011;21134;49.646;8.560;2022-08-14T03:22:31;1.08;;;0.65;;
34930;SDS011;21134;49.646;8.560;2022-08-14T03:24:58;1.20;;;1.10;;
34930;SDS011;21134;49.646;8.560;2022-08-14T03:27:26;1.15;;;1.15;;
34930;SDS011;21134;49.646;8.560;2022-08-14T03:29:55;1.48;;;1.38;;
34930;SDS011;21134;49.646;8.560;2022-08-14T03:32:22;0.90;;;0.90;;
34930;SDS011;21134;49.646;8.560;2022-08-14T03:34:48;0.98;;;0.98;;
34930;SDS011;21134;49.646;8.560;2022-08-14T03:37:15;1.90;;;1.33;;
34930;SDS011;21134;49.646;8.560;2022-08-14T03:39:43;1.85;;;1.70;;
34930;SDS011;21134;49.646;8.560;2022-08-14T03:42:10;0.95;;;0.65;;
34930;SDS011;21134;49.646;8.560;2022-08-14T03:44:37;1.23;;;0.90;;
34930;SDS011;21134;49.646;8.560;2022-08-14T03:47:08;1.33;;;1.00;;
34930;SDS011;21134;49.646;8.560;2022-08-14T03:49:36;0.77;;;0.77;;
34930;SDS011;21134;49.646;8.560;2022-08-14T03:52:03;2.08;;;1.13;;
34930;SDS011;21134;49.646;8.560;2022-08-14T03:54:30;3.92;;;2.00;;
34930;SDS011;21134;49.646;8.560;2022-08-14T03:57:01;0.95;;;0.95;;
34930;SDS011;21134;49.646;8.560;2022-08-14T03:59:28;2.30;;;1.90;;
34930;SDS011;21134;49.646;8.560;2022-08-14T04:01:55;4.10;;;1.80;;
34930;SDS011;21134;49.646;8.560;2022-08-14T04:04:21;5.22;;;1.30;;
34930;SDS011;21134;49.646;8.560;2022-08-14T04:06:48;8.77;;;2.08;;
34930;SDS011;21134;49.646;8.560;2022-08-14T04:09:15;2.47;;;1.80;;
34930;SDS011;21134;49.646;8.560;2022-08-14T04:11:42;2.20;;;1.95;;
34930;SDS011;21134;49.646;8.560;2022-08-14T04:14:10;2.60;;;1.45;;
34930;SDS011;21134;49.646;8.560;2022-08-14T04:16:38;3.10;;;1.98;;
34930;SDS011;21134;49.646;8.560;2022-08-14T04:19:11;2.35;;;1.77;;
34930;SDS011;21134;49.646;8.560;2022-08-14T04:21:40;4.60;;;1.50;;
34930;SDS011;21134;49.646;8.560;2022-08-14T04:24:07;2.92;;;1.90;;
34930;SDS011;21134;49.646;8.560;2022-08-14T04:26:33;2.10;;;1.90;;
34930;SDS011;21134;49.646;8.560;2022-08-14T04:29:00;4.38;;;2.63;;
34930;SDS011;21134;49.646;8.560;2022-08-14T04:31:29;1.48;;;1.38;;
34930;SDS011;21134;49.646;8.560;2022-08-14T04:33:55;1.60;;;1.48;;
34930;SDS011;21134;49.646;8.560;2022-08-14T04:36:22;3.38;;;1.70;;
34930;SDS011;21134;49.646;8.560;2022-08-14T04:38:48;4.20;;;1.23;;
34930;SDS011;21134;49.646;8.560;2022-08-14T04:41:33;2.63;;;2.08;;
34930;SDS011;21134;49.646;8.560;2022-08-14T04:44:17;1.75;;;1.33;;
34930;SDS011;21134;49.646;8.560;2022-08-14T04:46:45;2.95;;;1.65;;
34930;SDS011;21134;49.646;8.560;2022-08-14T04:49:26;4.57;;;1.90;;
34930;SDS011;21134;49.646;8.560;2022-08-14T04:51:53;2.65;;;1.63;;
34930;SDS011;21134;49.646;8.560;2022-08-14T04:54:19;2.20;;;1.02;;
34930;SDS011;21134;49.646;8.560;2022-08-14T04:56:46;3.25;;;1.90;;
34930;SDS011;21134;49.646;8.560;2022-08-14T04:59:12;6.35;;;3.95;;
34930;SDS011;21134;49.646;8.560;2022-08-14T05:01:40;5.80;;;3.38;;
34930;SDS011;21134;49.646;8.560;2022-08-14T05:04:10;12.27;;;3.17;;
34930;SDS011;21134;49.646;8.560;2022-08-14T05:06:37;2.58;;;2.10;;
34930;SDS011;21134;49.646;8.560;2022-08-14T05:09:05;2.95;;;1.80;;
34930;SDS011;21134;49.646;8.560;2022-08-14T05:11:32;2.80;;;1.85;;
34930;SDS011;21134;49.646;8.560;2022-08-14T05:14:00;2.75;;;2.38;;
34930;SDS011;21134;49.646;8.560;2022-08-14T05:16:26;2.25;;;1.80;;
34930;SDS011;21134;49.646;8.560;2022-08-14T05:18:55;8.43;;;3.05;;
34930;SDS011;21134;49.646;8.560;2022-08-14T05:21:24;7.25;;;2.65;;
34930;SDS011;21134;49.646;8.560;2022-08-14T05:23:53;4.07;;;2.88;;
34930;SDS011;21134;49.646;8.560;2022-08-14T05:26:19;3.10;;;2.15;;
34930;SDS011;21134;49.646;8.560;2022-08-14T05:28:46;4.63;;;2.30;;
34930;SDS011;21134;49.646;8.560;2022-08-14T05:31:13;14.18;;;3.72;;
34930;SDS011;21134;49.646;8.560;2022-08-14T05:33:42;4.97;;;2.47;;
34930;SDS011;21134;49.646;8.560;2022-08-14T05:36:11;4.68;;;2.55;;
34930;SDS011;21134;49.646;8.560;2022-08-14T05:38:40;7.65;;;3.47;;
34930;SDS011;21134;49.646;8.560;2022-08-14T05:41:10;8.38;;;3.17;;
34930;SDS011;21134;49.646;8.560;2022-08-14T05:43:38;5.40;;;3.63;;
34930;SDS011;21134;49.646;8.560;2022-08-14T05:46:05;6.75;;;3.50;;
34930;SDS011;21134;49.646;8.560;2022-08-14T05:48:34;5.25;;;3.45;;
34930;SDS011;21134;49.646;8.560;2022-08-14T05:51:01;6.38;;;3.65;;
34930;SDS011;21134;49.646;8.560;2022-08-14T05:53:27;4.35;;;2.72;;
34930;SDS011;21134;49.646;8.560;2022-08-14T05:55:55;6.00;;;3.30;;
34930;SDS011;21134;49.646;8.560;2022-08-14T05:58:23;4.15;;;2.60;;
34930;SDS011;21134;49.646;8.560;2022-08-14T06:00:50;6.55;;;3.35;;
34930;SDS011;21134;49.646;8.560;2022-08-14T06:03:18;8.63;;;3.67;;
34930;SDS011;21134;49.646;8.560;2022-08-14T06:05:47;4.43;;;2.53;;
34930;SDS011;21134;49.646;8.560;2022-08-14T06:08:16;6.22;;;3.40;;
34930;SDS011;21134;49.646;8.560;2022-08-14T06:10:45;6.68;;;3.53;;
34930;SDS011;21134;49.646;8.560;2022-08-14T06:13:13;9.32;;;3.10;;
34930;SDS011;21134;49.646;8.560;2022-08-14T06:15:40;7.85;;;3.22;;
34930;SDS011;21134;49.646;8.560;2022-08-14T06:18:07;4.43;;;3.25;;
34930;SDS011;21134;49.646;8.560;2022-08-14T06:20:36;4.10;;;2.60;;
34930;SDS011;21134;49.646;8.560;2022-08-14T06:23:03;5.85;;;3.33;;
34930;SDS011;21134;49.646;8.560;2022-08-14T06:25:30;13.98;;;4.05;;
34930;SDS011;21134;49.646;8.560;2022-08-14T06:27:57;4.65;;;2.88;;
34930;SDS011;21134;49.646;8.560;2022-08-14T06:30:26;5.05;;;2.78;;
34930;SDS011;21134;49.646;8.560;2022-08-14T06:32:53;5.55;;;2.40;;
34930;SDS011;21134;49.646;8.560;2022-08-14T06:35:20;2.38;;;1.60;;
34930;SDS011;21134;49.646;8.560;2022-08-14T06:37:47;2.15;;;1.67;;
34930;SDS011;21134;49.646;8.560;2022-08-14T06:40:16;4.68;;;2.78;;
34930;SDS011;21134;49.646;8.560;2022-08-14T06:42:43;5.38;;;2.95;;
34930;SDS011;21134;49.646;8.560;2022-08-14T06:45:10;3.75;;;2.28;;
34930;SDS011;21134;49.646;8.560;2022-08-14T06:47:39;3.97;;;2.85;;
34930;SDS011;21134;49.646;8.560;2022-08-14T06:50:07;3.58;;;2.72;;
34930;SDS011;21134;49.646;8.560;2022-08-14T06:52:37;2.10;;;1.90;;
34930;SDS011;21134;49.646;8.560;2022-08-14T06:55:05;6.25;;;2.70;;
34930;SDS011;21134;49.646;8.560;2022-08-14T06:57:34;3.30;;;2.35;;
34930;SDS011;21134;49.646;8.560;2022-08-14T07:00:04;3.97;;;2.58;;
34930;SDS011;21134;49.646;8.560;2022-08-14T07:02:31;2.35;;;2.10;;
34930;SDS011;21134;49.646;8.560;2022-08-14T07:05:17;3.30;;;2.00;;
34930;SDS011;21134;49.646;8.560;2022-08-14T07:08:01;3.83;;;2.17;;
34930;SDS011;21134;49.646;8.560;2022-08-14T07:10:29;6.70;;;2.88;;
34930;SDS011;21134;49.646;8.560;2022-08-14T07:12:56;3.58;;;2.03;;
34930;SDS011;21134;49.646;8.560;2022-08-14T07:15:23;2.38;;;1.42;;
34930;SDS011;21134;49.646;8.560;2022-08-14T07:17:50;2.45;;;1.77;;
34930;SDS011;21134;49.646;8.560;2022-08-14T07:20:18;3.72;;;2.00;;
34930;SDS011;21134;49.646;8.560;2022-08-14T07:22:45;2.55;;;1.83;;
34930;SDS011;21134;49.646;8.560;2022-08-14T07:25:11;3.70;;;2.30;;
34930;SDS011;21134;49.646;8.560;2022-08-14T07:27:38;3.67;;;2.45;;
34930;SDS011;21134;49.646;8.560;2022-08-14T07:30:05;2.83;;;1.80;;
34930;SDS011;21134;49.646;8.560;2022-08-14T07:32:33;2.08;;;1.88;;
34930;SDS011;21134;49.646;8.560;2022-08-14T07:34:59;2.60;;;2.00;;
34930;SDS011;21134;49.646;8.560;2022-08-14T07:37:27;3.22;;;2.33;;
34930;SDS011;21134;49.646;8.560;2022-08-14T07:39:54;2.42;;;1.83;;
34930;SDS011;21134;49.646;8.560;2022-08-14T07:42:20;2.85;;;2.08;;
34930;SDS011;21134;49.646;8.560;2022-08-14T07:44:47;3.75;;;1.75;;
34930;SDS011;21134;49.646;8.560;2022-08-14T07:47:14;3.22;;;1.98;;
34930;SDS011;21134;49.646;8.560;2022-08-14T07:49:41;2.95;;;2.20;;
34930;SDS011;21134;49.646;8.560;2022-08-14T07:52:07;2.80;;;1.95;;
34930;SDS011;21134;49.646;8.560;2022-08-14T07:54:35;1.95;;;1.75;;
34930;SDS011;21134;49.646;8.560;2022-08-14T07:57:02;2.55;;;1.92;;
34930;SDS011;21134;49.646;8.560;2022-08-14T07:59:29;4.25;;;1.98;;
34930;SDS011;21134;49.646;8.560;2022-08-14T08:01:56;2.05;;;1.58;;
34930;SDS011;21134;49.646;8.560;2022-08-14T08:04:23;2.88;;;2.08;;
34930;SDS011;21134;49.646;8.560;2022-08-14T08:06:51;2.13;;;1.67;;
34930;SDS011;21134;49.646;8.560;2022-08-14T08:09:19;1.70;;;1.40;;
34930;SDS011;21134;49.646;8.560;2022-08-14T08:11:51;1.95;;;1.73;;
34930;SDS011;21134;49.646;8.560;2022-08-14T08:14:19;2.42;;;1.85;;
34930;SDS011;21134;49.646;8.560;2022-08-14T08:16:46;1.83;;;1.42;;
34930;SDS011;21134;49.646;8.560;2022-08-14T08:19:13;2.95;;;1.80;;
34930;SDS011;21134;49.646;8.560;2022-08-14T08:21:42;2.42;;;1.70;;
34930;SDS011;21134;49.646;8.560;2022-08-14T08:24:10;3.67;;;1.90;;
34930;SDS011;21134;49.646;8.560;2022-08-14T08:26:36;3.65;;;1.77;;
34930;SDS011;21134;49.646;8.560;2022-08-14T08:29:04;1.85;;;1.70;;
34930;SDS011;21134;49.646;8.560;2022-08-14T08:31:31;2.08;;;1.80;;
34930;SDS011;21134;49.646;8.560;2022-08-14T08:33:58;1.63;;;1.08;;
34930;SDS011;21134;49.646;8.560;2022-08-14T08:36:24;1.27;;;1.17;;
34930;SDS011;21134;49.646;8.560;2022-08-14T08:38:51;1.25;;;1.15;;
34930;SDS011;21134;49.646;8.560;2022-08-14T08:41:24;1.63;;;1.38;;
34930;SDS011;21134;49.646;8.560;2022-08-14T08:43:52;2.40;;;1.90;;
34930;SDS011;21134;49.646;8.560;2022-08-14T08:46:20;4.32;;;1.60;;
34930;SDS011;21134;49.646;8.560;2022-08-14T08:48:47;2.80;;;1.83;;
34930;SDS011;21134;49.646;8.560;2022-08-14T08:51:22;5.63;;;1.58;;
34930;SDS011;21134;49.646;8.560;2022-08-14T08:53:57;2.65;;;1.98;;
34930;SDS011;21134;49.646;8.560;2022-08-14T08:56:32;1.38;;;1.27;;
34930;SDS011;21134;49.646;8.560;2022-08-14T08:59:14;1.25;;;1.15;;
34930;SDS011;21134;49.646;8.560;2022-08-14T09:01:47;2.72;;;1.50;;
34930;SDS011;21134;49.646;8.560;2022-08-14T09:04:15;21.63;;;2.00;;
34930;SDS011;21134;49.646;8.560;2022-08-14T09:06:42;4.13;;;1.65;;
34930;SDS011;21134;49.646;8.560;2022-08-14T09:09:16;2.85;;;1.85;;
34930;SDS011;21134;49.646;8.560;2022-08-14T09:11:44;1.20;;;1.10;;
34930;SDS011;21134;49.646;8.560;2022-08-14T09:14:11;2.42;;;2.22;;
34930;SDS011;21134;49.646;8.560;2022-08-14T09:16:37;1.42;;;1.25;;
34930;SDS011;21134;49.646;8.560;2022-08-14T09:19:06;1.88;;;1.50;;
34930;SDS011;21134;49.646;8.560;2022-08-14T09:21:32;1.33;;;1.23;;
34930;SDS011;21134;49.646;8.560;2022-08-14T09:23:59;9.75;;;1.33;;
34930;SDS011;21134;49.646;8.560;2022-08-14T09:26:26;1.30;;;1.20;;
34930;SDS011;21134;49.646;8.560;2022-08-14T09:28:53;1.15;;;1.05;;
34930;SDS011;21134;49.646;8.560;2022-08-14T09:31:21;0.98;;;0.98;;
34930;SDS011;21134;49.646;8.560;2022-08-14T09:33:52;0.70;;;0.70;;
34930;SDS011;21134;49.646;8.560;2022-08-14T09:36:36;1.33;;;1.23;;
34930;SDS011;21134;49.646;8.560;2022-08-14T09:39:15;2.05;;;1.13;;
34930;SDS011;21134;49.646;8.560;2022-08-14T09:41:59;1.25;;;1.15;;
34930;SDS011;21134;49.646;8.560;2022-08-14T09:44:40;2.47;;;1.50;;
34930;SDS011;21134;49.646;8.560;2022-08-14T09:47:10;2.58;;;0.98;;
34930;SDS011;21134;49.646;8.560;2022-08-14T09:49:39;1.15;;;1.08;;
34930;SDS011;21134;49.646;8.560;2022-08-14T09:52:08;2.08;;;1.00;;
34930;SDS011;21134;49.646;8.560;2022-08-14T09:54:38;1.88;;;1.48;;
34930;SDS011;21134;49.646;8.560;2022-08-14T09:57:07;1.30;;;1.15;;
34930;SDS011;21134;49.646;8.560;2022-08-14T09:59:41;1.45;;;1.17;;
34930;SDS011;21134;49.646;8.560;2022-08-14T10:02:17;1.20;;;1.02;;
34930;SDS011;21134;49.646;8.560;2022-08-14T10:04:45;1.42;;;1.30;;
34930;SDS011;21134;49.646;8.560;2022-08-14T10:07:14;1.70;;;1.40;;
34930;SDS011;21134;49.646;8.560;2022-08-14T10:09:47;1.88;;;1.63;;
34930;SDS011;21134;49.646;8.560;2022-08-14T10:12:14;1.55;;;1.45;;
34930;SDS011;21134;49.646;8.560;2022-08-14T10:14:41;2.17;;;1.98;;
34930;SDS011;21134;49.646;8.560;2022-08-14T10:17:08;1.92;;;1.50;;
34930;SDS011;21134;49.646;8.560;2022-08-14T10:19:45;1.75;;;1.33;;
34930;SDS011;21134;49.646;8.560;2022-08-14T10:22:14;1.75;;;1.25;;
34930;SDS011;21134;49.646;8.560;2022-08-14T10:24:42;1.25;;;1.15;;
34930;SDS011;21134;49.646;8.560;2022-08-14T10:27:12;3.58;;;1.08;;
34930;SDS011;21134;49.646;8.560;2022-08-14T10:29:42;1.90;;;1.10;;
34930;SDS011;21134;49.646;8.560;2022-08-14T10:32:13;0.75;;;0.75;;
34930;SDS011;21134;49.646;8.560;2022-08-14T10:34:40;1.38;;;1.20;;
34930;SDS011;21134;49.646;8.560;2022-08-14T10:37:08;1.63;;;1.00;;
34930;SDS011;21134;49.646;8.560;2022-08-14T10:39:37;1.08;;;1.00;;
34930;SDS011;21134;49.646;8.560;2022-08-14T10:42:06;1.98;;;1.58;;
34930;SDS011;21134;49.646;8.560;2022-08-14T10:44:34;1.30;;;1.20;;
34930;SDS011;21134;49.646;8.560;2022-08-14T10:47:03;1.67;;;1.58;;
34930;SDS011;21134;49.646;8.560;2022-08-14T10:49:32;2.00;;;1.50;;
34930;SDS011;21134;49.646;8.560;2022-08-14T10:51:59;1.40;;;1.25;;
34930;SDS011;21134;49.646;8.560;2022-08-14T10:54:31;1.48;;;1.33;;
34930;SDS011;21134;49.646;8.560;2022-08-14T10:59:56;1.52;;;1.42;;
34930;SDS011;21134;49.646;8.560;2022-08-14T11:02:25;1.70;;;1.48;;
34930;SDS011;21134;49.646;8.560;2022-08-14T11:05:02;1.13;;;1.02;;
34930;SDS011;21134;49.646;8.560;2022-08-14T11:07:31;2.67;;;1.77;;
34930;SDS011;21134;49.646;8.560;2022-08-14T11:10:00;1.17;;;1.08;;
34930;SDS011;21134;49.646;8.560;2022-08-14T11:12:39;2.58;;;1.50;;
34930;SDS011;21134;49.646;8.560;2022-08-14T11:15:10;1.48;;;1.38;;
34930;SDS011;21134;49.646;8.560;2022-08-14T11:17:37;0.95;;;0.95;;
34930;SDS011;21134;49.646;8.560;2022-08-14T11:20:05;2.35;;;2.10;;
34930;SDS011;21134;49.646;8.560;2022-08-14T11:22:33;1.90;;;1.33;;
34930;SDS011;21134;49.646;8.560;2022-08-14T11:25:04;0.90;;;0.90;;
34930;SDS011;21134;49.646;8.560;2022-08-14T11:27:33;1.70;;;1.27;;
34930;SDS011;21134;49.646;8.560;2022-08-14T11:30:02;1.95;;;1.67;;
34930;SDS011;21134;49.646;8.560;2022-08-14T11:32:30;1.30;;;1.13;;
34930;SDS011;21134;49.646;8.560;2022-08-14T11:34:57;1.33;;;1.23;;
34930;SDS011;21134;49.646;8.560;2022-08-14T11:37:26;1.23;;;1.13;;
34930;SDS011;21134;49.646;8.560;2022-08-14T11:39:53;1.85;;;1.10;;
34930;SDS011;21134;49.646;8.560;2022-08-14T11:42:21;2.53;;;1.45;;
34930;SDS011;21134;49.646;8.560;2022-08-14T11:44:51;1.67;;;1.27;;
34930;SDS011;21134;49.646;8.560;2022-08-14T11:47:20;1.83;;;1.35;;
34930;SDS011;21134;49.646;8.560;2022-08-14T11:49:47;1.40;;;1.13;;
34930;SDS011;21134;49.646;8.560;2022-08-14T11:52:14;1.40;;;1.30;;
34930;SDS011;21134;49.646;8.560;2022-08-14T11:54:43;1.15;;;0.98;;
34930;SDS011;21134;49.646;8.560;2022-08-14T11:57:13;1.77;;;1.50;;
34930;SDS011;21134;49.646;8.560;2022-08-14T11:59:40;1.60;;;1.50;;
34930;SDS011;21134;49.646;8.560;2022-08-14T12:02:08;1.35;;;1.15;;
34930;SDS011;21134;49.646;8.560;2022-08-14T12:04:48;3.97;;;1.80;;
34930;SDS011;21134;49.646;8.560;2022-08-14T12:07:15;0.80;;;0.80;;
34930;SDS011;21134;49.646;8.560;2022-08-14T12:09:42;1.38;;;1.13;;
34930;SDS011;21134;49.646;8.560;2022-08-14T12:12:13;1.38;;;1.05;;
34930;SDS011;21134;49.646;8.560;2022-08-14T12:14:50;1.30;;;1.20;;
34930;SDS011;21134;49.646;8.560;2022-08-14T12:17:20;1.38;;;1.27;;
34930;SDS011;21134;49.646;8.560;2022-08-14T12:19:49;1.42;;;1.10;;
34930;SDS011;21134;49.646;8.560;2022-08-14T12:22:17;0.95;;;0.93;;
34930;SDS011;21134;49.646;8.560;2022-08-14T12:24:44;1.10;;;1.00;;
34930;SDS011;21134;49.646;8.560;2022-08-14T12:27:14;1.10;;;1.00;;
34930;SDS011;21134;49.646;8.560;2022-08-14T12:29:49;1.13;;;1.13;;
34930;SDS011;21134;49.646;8.560;2022-08-14T12:32:17;1.58;;;1.30;;
34930;SDS011;21134;49.646;8.560;2022-08-14T12:34:50;1.85;;;1.38;;
34930;SDS011;21134;49.646;8.560;2022-08-14T12:37:27;1.05;;;0.80;;
34930;SDS011;21134;49.646;8.560;2022-08-14T12:39:54;2.20;;;1.33;;
34930;SDS011;21134;49.646;8.560;2022-08-14T12:42:21;1.33;;;1.20;;
34930;SDS011;21134;49.646;8.560;2022-08-14T12:44:59;1.10;;;1.10;;
34930;SDS011;21134;49.646;8.560;2022-08-14T12:47:25;1.83;;;1.42;;
34930;SDS011;21134;49.646;8.560;2022-08-14T12:49:56;1.60;;;1.20;;
34930;SDS011;21134;49.646;8.560;2022-08-14T12:52:27;1.05;;;0.95;;
34930;SDS011;21134;49.646;8.560;2022-08-14T12:54:56;0.70;;;0.70;;
34930;SDS011;21134;49.646;8.560;2022-08-14T12:57:31;1.40;;;1.30;;
34930;SDS011;21134;49.646;8.560;2022-08-14T13:00:06;0.93;;;0.93;;
34930;SDS011;21134;49.646;8.560;2022-08-14T13:02:37;0.82;;;0.82;;
34930;SDS011;21134;49.646;8.560;2022-08-14T13:05:07;1.25;;;1.17;;
34930;SDS011;21134;49.646;8.560;2022-08-14T13:07:35;1.60;;;1.50;;
34930;SDS011;21134;49.646;8.560;2022-08-14T13:10:04;1.02;;;1.00;;
34930;SDS011;21134;49.646;8.560;2022-08-14T13:12:32;1.10;;;1.00;;
34930;SDS011;21134;49.646;8.560;2022-08-14T13:14:59;2.60;;;1.55;;
34930;SDS011;21134;49.646;8.560;2022-08-14T13:17:27;1.40;;;1.30;;
34930;SDS011;21134;49.646;8.560;2022-08-14T13:19:55;1.30;;;1.20;;
34930;SDS011;21134;49.646;8.560;2022-08-14T13:22:24;1.23;;;1.05;;
34930;SDS011;21134;49.646;8.560;2022-08-14T13:24:52;31.05;;;1.80;;
34930;SDS011;21134;49.646;8.560;2022-08-14T13:27:19;2.17;;;1.20;;
34930;SDS011;21134;49.646;8.560;2022-08-14T13:29:48;2.55;;;1.80;;
34930;SDS011;21134;49.646;8.560;2022-08-14T13:32:17;1.25;;;1.13;;
34930;SDS011;21134;49.646;8.560;2022-08-14T13:34:46;1.20;;;1.10;;
34930;SDS011;21134;49.646;8.560;2022-08-14T13:37:14;1.67;;;1.13;;
34930;SDS011;21134;49.646;8.560;2022-08-14T13:39:42;1.70;;;1.60;;
34930;SDS011;21134;49.646;8.560;2022-08-14T13:42:12;2.03;;;1.27;;
34930;SDS011;21134;49.646;8.560;2022-08-14T13:44:40;3.00;;;1.75;;
34930;SDS011;21134;49.646;8.560;2022-08-14T13:47:07;1.23;;;1.13;;
34930;SDS011;21134;49.646;8.560;2022-08-14T13:49:34;1.95;;;1.30;;
34930;SDS011;21134;49.646;8.560;2022-08-14T13:52:02;2.25;;;1.40;;
34930;SDS011;21134;49.646;8.560;2022-08-14T13:54:30;2.47;;;1.50;;
34930;SDS011;21134;49.646;8.560;2022-08-14T13:57:00;1.40;;;1.30;;
34930;SDS011;21134;49.646;8.560;2022-08-14T13:59:28;0.77;;;0.77;;
34930;SDS011;21134;49.646;8.560;2022-08-14T14:01:56;4.45;;;1.35;;
34930;SDS011;21134;49.646;8.560;2022-08-14T14:04:30;1.23;;;1.13;;
34930;SDS011;21134;49.646;8.560;2022-08-14T14:06:58;1.35;;;1.08;;
34930;SDS011;21134;49.646;8.560;2022-08-14T14:09:28;1.02;;;1.02;;
34930;SDS011;21134;49.646;8.560;2022-08-14T14:11:57;2.53;;;1.20;;
34930;SDS011;21134;49.646;8.560;2022-08-14T14:14:26;6.35;;;1.52;;
34930;SDS011;21134;49.646;8.560;2022-08-14T14:16:52;1.33;;;0.93;;
34930;SDS011;21134;49.646;8.560;2022-08-14T14:19:20;1.50;;;1.08;;
34930;SDS011;21134;49.646;8.560;2022-08-14T14:21:52;1.35;;;1.10;;
34930;SDS011;21134;49.646;8.560;2022-08-14T14:24:20;1.20;;;1.05;;
34930;SDS011;21134;49.646;8.560;2022-08-14T14:26:47;0.90;;;0.90;;
34930;SDS011;21134;49.646;8.560;2022-08-14T14:29:15;2.05;;;1.38;;
34930;SDS011;21134;49.646;8.560;2022-08-14T14:31:44;1.60;;;1.17;;
34930;SDS011;21134;49.646;8.560;2022-08-14T14:34:13;2.03;;;1.25;;
34930;SDS011;21134;49.646;8.560;2022-08-14T14:36:42;1.20;;;1.10;;
34930;SDS011;21134;49.646;8.560;2022-08-14T14:39:09;1.17;;;1.17;;
34930;SDS011;21134;49.646;8.560;2022-08-14T14:41:37;0.93;;;0.93;;
34930;SDS011;21134;49.646;8.560;2022-08-14T14:44:05;2.03;;;1.50;;
34930;SDS011;21134;49.646;8.560;2022-08-14T14:46:34;1.08;;;1.00;;
34930;SDS011;21134;49.646;8.560;2022-08-14T14:49:04;1.27;;;1.13;;
34930;SDS011;21134;49.646;8.560;2022-08-14T14:51:32;1.30;;;1.20;;
34930;SDS011;21134;49.646;8.560;2022-08-14T14:54:00;0.80;;;0.80;;
34930;SDS011;21134;49.646;8.560;2022-08-14T14:56:27;0.77;;;0.77;;
34930;SDS011;21134;49.646;8.560;2022-08-14T14:58:55;1.25;;;1.10;;
34930;SDS011;21134;49.646;8.560;2022-08-14T15:01:22;1.67;;;1.25;;